createdAt,value
2022-10-22T00:07:59.282Z,24.84
2022-10-22T00:18:04.063Z,24.84
2022-10-22T00:28:09.227Z,24.81
2022-10-22T00:38:13.901Z,24.79
2022-10-22T00:48:19.496Z,24.78
2022-10-22T00:58:24.790Z,24.76
2022-10-22T01:08:30.041Z,24.75
2022-10-22T01:18:35.180Z,24.73
2022-10-22T01:28:40.722Z,24.70
2022-10-22T01:38:46.182Z,24.70
2022-10-22T01:48:51.930Z,24.70
2022-10-22T01:58:57.360Z,24.67
2022-10-22T02:09:02.849Z,24.65
2022-10-22T02:19:08.259Z,24.64
2022-10-22T02:29:13.540Z,24.63
2022-10-22T02:39:18.740Z,24.60
2022-10-22T02:49:23.659Z,24.60
2022-10-22T02:59:29.037Z,24.56
2022-10-22T03:09:34.592Z,24.56
2022-10-22T03:19:39.996Z,24.56
2022-10-22T03:29:45.287Z,24.56
2022-10-22T03:39:50.678Z,24.55
2022-10-22T03:49:56.102Z,24.54
2022-10-22T04:00:01.568Z,24.54
2022-10-22T04:10:06.893Z,24.55
2022-10-22T04:20:12.177Z,24.52
2022-10-22T04:30:17.078Z,24.50
2022-10-22T04:40:22.469Z,24.51
2022-10-22T04:50:27.921Z,24.48
2022-10-22T05:00:33.051Z,24.46
2022-10-22T05:10:38.229Z,24.48
2022-10-22T05:20:43.504Z,24.45
2022-10-22T05:30:48.058Z,24.45
2022-10-22T05:40:52.861Z,24.45
2022-10-22T05:50:58.097Z,24.45
2022-10-22T06:01:02.935Z,24.45
2022-10-22T06:11:08.352Z,24.42
2022-10-22T06:21:13.021Z,24.43
2022-10-22T06:31:18.185Z,24.60
2022-10-22T06:41:25.779Z,24.60
2022-10-22T06:51:33.147Z,24.65
2022-10-22T07:01:38.388Z,24.68
2022-10-22T07:11:43.929Z,24.71
2022-10-22T07:21:49.148Z,24.74
2022-10-22T07:31:54.098Z,24.76
2022-10-22T07:41:59.456Z,24.73
2022-10-22T07:52:04.843Z,24.69
2022-10-22T08:02:10.267Z,24.66
2022-10-22T08:12:15.103Z,24.66
2022-10-22T08:22:20.357Z,24.60
2022-10-22T08:42:30.661Z,24.60
2022-10-22T08:52:35.544Z,24.57
2022-10-22T09:02:41.082Z,24.56
2022-10-22T09:12:46.426Z,24.55
2022-10-22T09:22:51.691Z,24.56
2022-10-22T09:32:56.521Z,24.58
2022-10-22T09:43:01.847Z,24.57
2022-10-22T09:53:07.079Z,24.54
2022-10-22T10:03:12.469Z,24.53
2022-10-22T10:13:17.716Z,24.58
2022-10-22T10:23:24.540Z,24.57
2022-10-22T10:33:30.497Z,24.60
2022-10-22T10:43:35.761Z,24.67
2022-10-22T10:53:40.931Z,24.73
2022-10-22T11:03:46.481Z,24.70
2022-10-22T11:13:52.013Z,24.69
2022-10-22T11:23:57.517Z,24.65
2022-10-22T11:34:09.899Z,24.63
2022-10-22T11:44:13.270Z,24.60
2022-10-22T11:54:18.910Z,24.65
2022-10-22T12:04:24.669Z,24.59
2022-10-22T12:14:30.265Z,24.60
2022-10-22T12:25:54.967Z,24.54
2022-10-22T12:35:59.923Z,24.62
2022-10-22T12:46:05.161Z,24.56
2022-10-22T12:56:10.119Z,24.54
2022-10-22T13:06:15.567Z,24.68
2022-10-22T13:16:20.734Z,24.61
2022-10-22T13:26:25.938Z,24.68
2022-10-22T13:36:31.116Z,24.83
2022-10-22T13:46:36.437Z,24.85
2022-10-22T13:56:41.792Z,24.82
2022-10-22T14:06:47.275Z,24.78
2022-10-22T14:16:52.622Z,24.88
2022-10-22T14:26:57.517Z,24.89
2022-10-22T14:37:02.774Z,24.65
2022-10-22T14:47:08.224Z,24.85
2022-10-22T14:57:13.528Z,24.95
2022-10-22T15:07:19.082Z,24.94
2022-10-22T15:17:24.875Z,24.94
2022-10-22T15:27:30.074Z,24.94
2022-10-22T15:37:35.436Z,24.94
2022-10-22T15:47:41.016Z,24.95
2022-10-22T15:57:46.063Z,24.97
2022-10-22T16:09:10.962Z,25.00
2022-10-22T16:19:15.807Z,24.92
2022-10-22T16:29:21.118Z,24.92
2022-10-22T16:39:26.494Z,24.91
2022-10-22T16:49:33.544Z,24.85
2022-10-22T16:59:39.026Z,24.85
2022-10-22T17:09:44.321Z,24.84
2022-10-22T17:19:49.466Z,24.81
2022-10-22T17:29:54.782Z,24.77
2022-10-22T17:40:00.532Z,24.75
2022-10-22T17:50:05.651Z,24.74
2022-10-22T18:00:10.703Z,24.74
2022-10-22T18:10:15.977Z,24.71
2022-10-22T18:20:21.695Z,24.78
2022-10-22T18:30:27.229Z,24.79
2022-10-22T18:40:32.736Z,24.80
2022-10-22T18:50:38.028Z,24.73
2022-10-22T19:00:43.449Z,24.69
2022-10-22T19:10:48.789Z,24.71
2022-10-22T19:20:54.013Z,24.69
2022-10-22T19:30:59.645Z,24.67
2022-10-22T19:41:04.688Z,24.65
2022-10-22T19:51:10.395Z,24.70
2022-10-22T20:01:15.567Z,24.71
2022-10-22T20:11:20.679Z,24.66
2022-10-22T20:21:25.533Z,24.58
2022-10-22T20:31:30.795Z,24.62
2022-10-22T20:41:36.002Z,24.68
2022-10-22T20:51:41.348Z,24.58
2022-10-22T21:01:46.970Z,24.59
2022-10-22T21:21:57.580Z,24.58
2022-10-22T21:33:22.376Z,24.51
2022-10-22T21:43:26.808Z,24.51
2022-10-22T21:53:31.840Z,24.53
2022-10-22T22:03:37.313Z,24.52
2022-10-22T22:13:42.889Z,24.56
2022-10-22T22:23:48.130Z,24.43
2022-10-22T22:33:53.277Z,24.44
2022-10-22T22:43:58.693Z,24.38
2022-10-22T22:54:03.779Z,24.29
2022-10-22T23:04:09.029Z,24.41
2022-10-22T23:14:14.073Z,24.42
2022-10-22T23:24:19.411Z,24.33
2022-10-22T23:34:25.031Z,24.34
2022-10-22T23:44:30.876Z,24.42
2022-10-22T23:54:36.477Z,24.38
